sensor_id;sensor_type;location;lat;lon;timestamp;P1;durP1;ratioP1;P2;durP2;ratioP2
22737;SDS011;11536;50.860;4.286;2023-11-22T00:00:11;18.02;;;8.70;;
22737;SDS011;11536;50.860;4.286;2023-11-22T00:02:38;20.27;;;8.43;;
22737;SDS011;11536;50.860;4.286;2023-11-22T00:05:04;19.42;;;8.57;;
22737;SDS011;11536;50.860;4.286;2023-11-22T00:07:31;18.33;;;8.93;;
22737;SDS011;11536;50.860;4.286;2023-11-22T00:09:59;21.65;;;9.25;;
22737;SDS011;11536;50.860;4.286;2023-11-22T00:12:26;20.15;;;9.48;;
22737;SDS011;11536;50.860;4.286;2023-11-22T00:14:53;19.48;;;8.48;;
22737;SDS011;11536;50.860;4.286;2023-11-22T00:17:19;19.30;;;8.68;;
22737;SDS011;11536;50.860;4.286;2023-11-22T00:19:44;15.57;;;7.70;;
22737;SDS011;11536;50.860;4.286;2023-11-22T00:22:13;19.35;;;8.88;;
22737;SDS011;11536;50.860;4.286;2023-11-22T00:24:40;19.42;;;8.98;;
22737;SDS011;11536;50.860;4.286;2023-11-22T00:27:06;18.45;;;8.93;;
22737;SDS011;11536;50.860;4.286;2023-11-22T00:29:32;17.42;;;8.23;;
22737;SDS011;11536;50.860;4.286;2023-11-22T00:31:58;17.60;;;7.75;;
22737;SDS011;11536;50.860;4.286;2023-11-22T00:34:24;21.98;;;9.48;;
22737;SDS011;11536;50.860;4.286;2023-11-22T00:36:49;20.20;;;8.27;;
22737;SDS011;11536;50.860;4.286;2023-11-22T00:39:16;19.80;;;8.93;;
22737;SDS011;11536;50.860;4.286;2023-11-22T00:41:43;17.52;;;8.68;;
22737;SDS011;11536;50.860;4.286;2023-11-22T00:44:09;20.25;;;8.77;;
22737;SDS011;11536;50.860;4.286;2023-11-22T00:46:35;18.25;;;8.45;;
22737;SDS011;11536;50.860;4.286;2023-11-22T00:49:02;20.30;;;9.02;;
22737;SDS011;11536;50.860;4.286;2023-11-22T00:51:29;20.58;;;9.55;;
22737;SDS011;11536;50.860;4.286;2023-11-22T00:53:56;21.52;;;8.98;;
22737;SDS011;11536;50.860;4.286;2023-11-22T00:56:22;18.55;;;8.43;;
22737;SDS011;11536;50.860;4.286;2023-11-22T00:58:48;18.85;;;8.55;;
22737;SDS011;11536;50.860;4.286;2023-11-22T01:01:15;21.20;;;9.38;;
22737;SDS011;11536;50.860;4.286;2023-11-22T01:03:44;19.80;;;8.73;;
22737;SDS011;11536;50.860;4.286;2023-11-22T01:06:09;20.33;;;8.20;;
22737;SDS011;11536;50.860;4.286;2023-11-22T01:08:35;18.70;;;7.88;;
22737;SDS011;11536;50.860;4.286;2023-11-22T01:11:02;17.30;;;8.38;;
22737;SDS011;11536;50.860;4.286;2023-11-22T01:13:28;17.92;;;8.52;;
22737;SDS011;11536;50.860;4.286;2023-11-22T01:15:54;18.52;;;8.75;;
22737;SDS011;11536;50.860;4.286;2023-11-22T01:18:20;17.70;;;7.50;;
22737;SDS011;11536;50.860;4.286;2023-11-22T01:20:45;18.17;;;7.72;;
22737;SDS011;11536;50.860;4.286;2023-11-22T01:23:11;19.45;;;8.50;;
22737;SDS011;11536;50.860;4.286;2023-11-22T01:25:37;17.65;;;8.43;;
22737;SDS011;11536;50.860;4.286;2023-11-22T01:28:02;17.48;;;8.13;;
22737;SDS011;11536;50.860;4.286;2023-11-22T01:30:28;24.95;;;9.10;;
22737;SDS011;11536;50.860;4.286;2023-11-22T01:32:54;17.60;;;8.15;;
22737;SDS011;11536;50.860;4.286;2023-11-22T01:35:20;17.25;;;8.20;;
22737;SDS011;11536;50.860;4.286;2023-11-22T01:37:46;16.80;;;7.95;;
22737;SDS011;11536;50.860;4.286;2023-11-22T01:40:12;17.73;;;8.23;;
22737;SDS011;11536;50.860;4.286;2023-11-22T01:42:38;25.02;;;8.15;;
22737;SDS011;11536;50.860;4.286;2023-11-22T01:45:08;18.23;;;8.20;;
22737;SDS011;11536;50.860;4.286;2023-11-22T01:47:35;18.23;;;8.25;;
22737;SDS011;11536;50.860;4.286;2023-11-22T01:50:02;19.58;;;7.90;;
22737;SDS011;11536;50.860;4.286;2023-11-22T01:52:30;18.80;;;8.48;;
22737;SDS011;11536;50.860;4.286;2023-11-22T01:54:56;21.25;;;8.85;;
22737;SDS011;11536;50.860;4.286;2023-11-22T01:57:22;18.35;;;8.15;;
22737;SDS011;11536;50.860;4.286;2023-11-22T01:59:48;18.63;;;8.13;;
22737;SDS011;11536;50.860;4.286;2023-11-22T02:02:14;19.27;;;9.00;;
22737;SDS011;11536;50.860;4.286;2023-11-22T02:04:39;19.00;;;8.60;;
22737;SDS011;11536;50.860;4.286;2023-11-22T02:07:05;20.77;;;8.52;;
22737;SDS011;11536;50.860;4.286;2023-11-22T02:09:31;19.60;;;8.65;;
22737;SDS011;11536;50.860;4.286;2023-11-22T02:11:57;19.15;;;8.27;;
22737;SDS011;11536;50.860;4.286;2023-11-22T02:14:22;17.63;;;8.27;;
22737;SDS011;11536;50.860;4.286;2023-11-22T02:16:48;18.17;;;8.85;;
22737;SDS011;11536;50.860;4.286;2023-11-22T02:19:15;20.50;;;9.63;;
22737;SDS011;11536;50.860;4.286;2023-11-22T02:21:42;19.10;;;8.68;;
22737;SDS011;11536;50.860;4.286;2023-11-22T02:24:08;19.38;;;8.80;;
22737;SDS011;11536;50.860;4.286;2023-11-22T02:26:34;17.80;;;8.57;;
22737;SDS011;11536;50.860;4.286;2023-11-22T02:29:01;18.73;;;9.05;;
22737;SDS011;11536;50.860;4.286;2023-11-22T02:31:29;19.52;;;8.57;;
22737;SDS011;11536;50.860;4.286;2023-11-22T02:33:54;20.60;;;9.27;;
22737;SDS011;11536;50.860;4.286;2023-11-22T02:36:20;17.38;;;8.27;;
22737;SDS011;11536;50.860;4.286;2023-11-22T02:38:47;17.90;;;8.07;;
22737;SDS011;11536;50.860;4.286;2023-11-22T02:41:13;16.85;;;8.13;;
22737;SDS011;11536;50.860;4.286;2023-11-22T02:43:38;20.80;;;8.65;;
22737;SDS011;11536;50.860;4.286;2023-11-22T02:46:06;19.20;;;8.55;;
22737;SDS011;11536;50.860;4.286;2023-11-22T02:48:33;17.42;;;8.13;;
22737;SDS011;11536;50.860;4.286;2023-11-22T02:50:58;21.65;;;8.77;;
22737;SDS011;11536;50.860;4.286;2023-11-22T02:53:24;17.13;;;7.85;;
22737;SDS011;11536;50.860;4.286;2023-11-22T02:55:51;19.65;;;9.52;;
22737;SDS011;11536;50.860;4.286;2023-11-22T02:58:20;20.23;;;8.88;;
22737;SDS011;11536;50.860;4.286;2023-11-22T03:00:46;20.33;;;9.45;;
22737;SDS011;11536;50.860;4.286;2023-11-22T03:03:12;19.42;;;8.93;;
22737;SDS011;11536;50.860;4.286;2023-11-22T03:05:38;20.50;;;9.00;;
22737;SDS011;11536;50.860;4.286;2023-11-22T03:08:05;19.10;;;8.27;;
22737;SDS011;11536;50.860;4.286;2023-11-22T03:10:32;22.45;;;9.68;;
22737;SDS011;11536;50.860;4.286;2023-11-22T03:12:58;22.38;;;10.02;;
22737;SDS011;11536;50.860;4.286;2023-11-22T03:15:23;21.02;;;9.20;;
22737;SDS011;11536;50.860;4.286;2023-11-22T03:17:49;21.10;;;9.40;;
22737;SDS011;11536;50.860;4.286;2023-11-22T03:20:15;22.10;;;9.45;;
22737;SDS011;11536;50.860;4.286;2023-11-22T03:22:41;22.17;;;9.73;;
22737;SDS011;11536;50.860;4.286;2023-11-22T03:25:09;24.02;;;10.85;;
22737;SDS011;11536;50.860;4.286;2023-11-22T03:27:35;20.58;;;9.68;;
22737;SDS011;11536;50.860;4.286;2023-11-22T03:30:01;25.10;;;11.20;;
22737;SDS011;11536;50.860;4.286;2023-11-22T03:32:26;20.83;;;9.80;;
22737;SDS011;11536;50.860;4.286;2023-11-22T03:34:53;22.55;;;10.40;;
22737;SDS011;11536;50.860;4.286;2023-11-22T03:37:19;25.10;;;11.20;;
22737;SDS011;11536;50.860;4.286;2023-11-22T03:39:44;24.08;;;10.85;;
22737;SDS011;11536;50.860;4.286;2023-11-22T03:42:13;23.48;;;9.90;;
22737;SDS011;11536;50.860;4.286;2023-11-22T03:44:42;24.50;;;10.68;;
22737;SDS011;11536;50.860;4.286;2023-11-22T03:47:09;23.50;;;10.77;;
22737;SDS011;11536;50.860;4.286;2023-11-22T03:49:36;21.60;;;9.95;;
22737;SDS011;11536;50.860;4.286;2023-11-22T03:52:01;23.90;;;10.27;;
22737;SDS011;11536;50.860;4.286;2023-11-22T03:54:27;23.63;;;9.85;;
22737;SDS011;11536;50.860;4.286;2023-11-22T03:56:53;24.50;;;10.50;;
22737;SDS011;11536;50.860;4.286;2023-11-22T03:59:18;26.38;;;11.05;;
22737;SDS011;11536;50.860;4.286;2023-11-22T04:01:44;24.60;;;10.50;;
22737;SDS011;11536;50.860;4.286;2023-11-22T04:04:10;23.77;;;10.90;;
22737;SDS011;11536;50.860;4.286;2023-11-22T04:06:35;27.45;;;12.23;;
22737;SDS011;11536;50.860;4.286;2023-11-22T04:09:01;26.55;;;11.15;;
22737;SDS011;11536;50.860;4.286;2023-11-22T04:11:27;22.13;;;10.00;;
22737;SDS011;11536;50.860;4.286;2023-11-22T04:13:54;24.85;;;10.45;;
22737;SDS011;11536;50.860;4.286;2023-11-22T04:16:20;21.95;;;10.18;;
22737;SDS011;11536;50.860;4.286;2023-11-22T04:18:46;21.63;;;10.02;;
22737;SDS011;11536;50.860;4.286;2023-11-22T04:21:11;27.05;;;10.75;;
22737;SDS011;11536;50.860;4.286;2023-11-22T04:23:37;23.33;;;10.05;;
22737;SDS011;11536;50.860;4.286;2023-11-22T04:26:02;23.45;;;9.55;;
22737;SDS011;11536;50.860;4.286;2023-11-22T04:28:28;21.48;;;9.80;;
22737;SDS011;11536;50.860;4.286;2023-11-22T04:30:54;21.90;;;10.30;;
22737;SDS011;11536;50.860;4.286;2023-11-22T04:33:21;22.83;;;10.52;;
22737;SDS011;11536;50.860;4.286;2023-11-22T04:35:48;23.17;;;10.70;;
22737;SDS011;11536;50.860;4.286;2023-11-22T04:38:14;23.65;;;10.45;;
22737;SDS011;11536;50.860;4.286;2023-11-22T04:40:39;23.17;;;10.63;;
22737;SDS011;11536;50.860;4.286;2023-11-22T04:43:06;24.25;;;10.50;;
22737;SDS011;11536;50.860;4.286;2023-11-22T04:45:32;21.27;;;9.23;;
22737;SDS011;11536;50.860;4.286;2023-11-22T04:47:58;23.10;;;10.27;;
22737;SDS011;11536;50.860;4.286;2023-11-22T04:50:23;23.30;;;9.68;;
22737;SDS011;11536;50.860;4.286;2023-11-22T04:52:49;23.02;;;10.15;;
22737;SDS011;11536;50.860;4.286;2023-11-22T04:55:15;23.17;;;10.45;;
22737;SDS011;11536;50.860;4.286;2023-11-22T04:57:41;21.75;;;9.90;;
22737;SDS011;11536;50.860;4.286;2023-11-22T05:00:07;26.45;;;10.98;;
22737;SDS011;11536;50.860;4.286;2023-11-22T05:02:34;26.60;;;11.32;;
22737;SDS011;11536;50.860;4.286;2023-11-22T05:05:00;25.95;;;10.80;;
22737;SDS011;11536;50.860;4.286;2023-11-22T05:07:26;24.58;;;10.07;;
22737;SDS011;11536;50.860;4.286;2023-11-22T05:09:51;27.20;;;10.60;;
22737;SDS011;11536;50.860;4.286;2023-11-22T05:12:17;22.02;;;9.90;;
22737;SDS011;11536;50.860;4.286;2023-11-22T05:14:43;28.77;;;10.90;;
22737;SDS011;11536;50.860;4.286;2023-11-22T05:17:10;29.98;;;11.20;;
22737;SDS011;11536;50.860;4.286;2023-11-22T05:19:36;26.15;;;11.27;;
22737;SDS011;11536;50.860;4.286;2023-11-22T05:22:01;23.35;;;9.98;;
22737;SDS011;11536;50.860;4.286;2023-11-22T05:24:27;24.10;;;10.52;;
22737;SDS011;11536;50.860;4.286;2023-11-22T05:26:53;24.60;;;11.13;;
22737;SDS011;11536;50.860;4.286;2023-11-22T05:29:18;24.05;;;10.32;;
22737;SDS011;11536;50.860;4.286;2023-11-22T05:31:44;27.73;;;10.25;;
22737;SDS011;11536;50.860;4.286;2023-11-22T05:34:09;22.38;;;9.82;;
22737;SDS011;11536;50.860;4.286;2023-11-22T05:36:35;23.02;;;10.07;;
22737;SDS011;11536;50.860;4.286;2023-11-22T05:39:01;25.35;;;10.65;;
22737;SDS011;11536;50.860;4.286;2023-11-22T05:41:28;29.60;;;11.52;;
22737;SDS011;11536;50.860;4.286;2023-11-22T05:43:54;27.35;;;10.85;;
22737;SDS011;11536;50.860;4.286;2023-11-22T05:46:20;24.98;;;10.30;;
22737;SDS011;11536;50.860;4.286;2023-11-22T05:48:53;26.05;;;10.60;;
22737;SDS011;11536;50.860;4.286;2023-11-22T05:51:19;27.02;;;11.15;;
22737;SDS011;11536;50.860;4.286;2023-11-22T05:53:45;24.38;;;10.85;;
22737;SDS011;11536;50.860;4.286;2023-11-22T05:56:10;22.75;;;10.52;;
22737;SDS011;11536;50.860;4.286;2023-11-22T05:58:37;24.60;;;10.20;;
22737;SDS011;11536;50.860;4.286;2023-11-22T06:01:06;26.13;;;11.00;;
22737;SDS011;11536;50.860;4.286;2023-11-22T06:03:32;26.17;;;10.40;;
22737;SDS011;11536;50.860;4.286;2023-11-22T06:06:00;25.05;;;10.43;;
22737;SDS011;11536;50.860;4.286;2023-11-22T06:08:27;26.90;;;11.07;;
22737;SDS011;11536;50.860;4.286;2023-11-22T06:10:53;26.60;;;11.77;;
22737;SDS011;11536;50.860;4.286;2023-11-22T06:13:22;23.25;;;10.02;;
22737;SDS011;11536;50.860;4.286;2023-11-22T06:15:49;25.90;;;10.80;;
22737;SDS011;11536;50.860;4.286;2023-11-22T06:18:15;27.55;;;11.30;;
22737;SDS011;11536;50.860;4.286;2023-11-22T06:20:41;24.00;;;11.05;;
22737;SDS011;11536;50.860;4.286;2023-11-22T06:23:07;27.73;;;11.50;;
22737;SDS011;11536;50.860;4.286;2023-11-22T06:25:33;24.83;;;10.50;;
22737;SDS011;11536;50.860;4.286;2023-11-22T06:28:01;26.27;;;10.90;;
22737;SDS011;11536;50.860;4.286;2023-11-22T06:30:27;26.27;;;10.85;;
22737;SDS011;11536;50.860;4.286;2023-11-22T06:32:53;25.95;;;11.50;;
22737;SDS011;11536;50.860;4.286;2023-11-22T06:35:18;25.77;;;10.77;;
22737;SDS011;11536;50.860;4.286;2023-11-22T06:37:44;27.45;;;9.85;;
22737;SDS011;11536;50.860;4.286;2023-11-22T06:40:10;24.52;;;11.48;;
22737;SDS011;11536;50.860;4.286;2023-11-22T06:42:42;27.30;;;11.38;;
22737;SDS011;11536;50.860;4.286;2023-11-22T06:45:07;28.45;;;11.55;;
22737;SDS011;11536;50.860;4.286;2023-11-22T06:47:38;25.70;;;10.77;;
22737;SDS011;11536;50.860;4.286;2023-11-22T06:50:04;26.38;;;11.77;;
22737;SDS011;11536;50.860;4.286;2023-11-22T06:52:34;28.58;;;11.93;;
22737;SDS011;11536;50.860;4.286;2023-11-22T06:55:01;26.30;;;11.43;;
22737;SDS011;11536;50.860;4.286;2023-11-22T06:57:27;27.35;;;11.30;;
22737;SDS011;11536;50.860;4.286;2023-11-22T06:59:54;29.05;;;12.13;;
22737;SDS011;11536;50.860;4.286;2023-11-22T07:02:21;28.42;;;12.05;;
22737;SDS011;11536;50.860;4.286;2023-11-22T07:04:46;29.58;;;11.93;;
22737;SDS011;11536;50.860;4.286;2023-11-22T07:07:12;30.40;;;13.20;;
22737;SDS011;11536;50.860;4.286;2023-11-22T07:09:41;31.65;;;13.63;;
22737;SDS011;11536;50.860;4.286;2023-11-22T07:12:07;30.27;;;12.75;;
22737;SDS011;11536;50.860;4.286;2023-11-22T07:14:33;26.52;;;11.73;;
22737;SDS011;11536;50.860;4.286;2023-11-22T07:17:02;28.75;;;11.45;;
22737;SDS011;11536;50.860;4.286;2023-11-22T07:19:42;27.58;;;11.43;;
22737;SDS011;11536;50.860;4.286;2023-11-22T07:22:12;28.48;;;12.38;;
22737;SDS011;11536;50.860;4.286;2023-11-22T07:24:43;30.67;;;12.68;;
22737;SDS011;11536;50.860;4.286;2023-11-22T07:27:13;28.15;;;11.93;;
22737;SDS011;11536;50.860;4.286;2023-11-22T07:29:40;31.23;;;12.43;;
22737;SDS011;11536;50.860;4.286;2023-11-22T07:32:06;27.85;;;11.55;;
22737;SDS011;11536;50.860;4.286;2023-11-22T07:34:33;28.60;;;12.27;;
22737;SDS011;11536;50.860;4.286;2023-11-22T07:37:03;27.65;;;11.93;;
22737;SDS011;11536;50.860;4.286;2023-11-22T07:39:28;25.63;;;11.77;;
22737;SDS011;11536;50.860;4.286;2023-11-22T07:41:54;27.27;;;12.75;;
22737;SDS011;11536;50.860;4.286;2023-11-22T07:44:21;25.13;;;11.27;;
22737;SDS011;11536;50.860;4.286;2023-11-22T07:46:49;24.65;;;11.38;;
22737;SDS011;11536;50.860;4.286;2023-11-22T07:49:16;27.85;;;11.35;;
22737;SDS011;11536;50.860;4.286;2023-11-22T07:51:44;25.48;;;11.48;;
22737;SDS011;11536;50.860;4.286;2023-11-22T07:54:12;27.70;;;11.63;;
22737;SDS011;11536;50.860;4.286;2023-11-22T07:56:40;30.90;;;12.73;;
22737;SDS011;11536;50.860;4.286;2023-11-22T07:59:08;25.67;;;11.50;;
22737;SDS011;11536;50.860;4.286;2023-11-22T08:01:35;24.25;;;11.35;;
22737;SDS011;11536;50.860;4.286;2023-11-22T08:04:01;30.02;;;12.55;;
22737;SDS011;11536;50.860;4.286;2023-11-22T08:06:27;27.35;;;11.82;;
22737;SDS011;11536;50.860;4.286;2023-11-22T08:08:53;27.35;;;12.20;;
22737;SDS011;11536;50.860;4.286;2023-11-22T08:11:18;23.35;;;10.60;;
22737;SDS011;11536;50.860;4.286;2023-11-22T08:13:45;25.00;;;10.90;;
22737;SDS011;11536;50.860;4.286;2023-11-22T08:16:10;26.02;;;11.35;;
22737;SDS011;11536;50.860;4.286;2023-11-22T08:18:39;30.05;;;12.05;;
22737;SDS011;11536;50.860;4.286;2023-11-22T08:21:07;24.48;;;10.68;;
22737;SDS011;11536;50.860;4.286;2023-11-22T08:23:33;27.02;;;11.38;;
22737;SDS011;11536;50.860;4.286;2023-11-22T08:25:59;28.83;;;12.38;;
22737;SDS011;11536;50.860;4.286;2023-11-22T08:28:25;23.95;;;10.25;;
22737;SDS011;11536;50.860;4.286;2023-11-22T08:30:51;26.65;;;11.15;;
22737;SDS011;11536;50.860;4.286;2023-11-22T08:33:17;30.65;;;10.98;;
22737;SDS011;11536;50.860;4.286;2023-11-22T08:35:43;28.13;;;11.25;;
22737;SDS011;11536;50.860;4.286;2023-11-22T08:38:09;28.27;;;12.82;;
22737;SDS011;11536;50.860;4.286;2023-11-22T08:40:35;25.63;;;11.50;;
22737;SDS011;11536;50.860;4.286;2023-11-22T08:43:02;27.88;;;11.10;;
22737;SDS011;11536;50.860;4.286;2023-11-22T08:45:29;25.40;;;11.98;;
22737;SDS011;11536;50.860;4.286;2023-11-22T08:47:56;27.58;;;12.45;;
22737;SDS011;11536;50.860;4.286;2023-11-22T08:50:22;26.13;;;11.25;;
22737;SDS011;11536;50.860;4.286;2023-11-22T08:52:48;24.95;;;10.80;;
22737;SDS011;11536;50.860;4.286;2023-11-22T08:55:17;27.60;;;13.25;;
22737;SDS011;11536;50.860;4.286;2023-11-22T08:57:50;25.75;;;11.30;;
22737;SDS011;11536;50.860;4.286;2023-11-22T09:00:18;25.38;;;12.48;;
22737;SDS011;11536;50.860;4.286;2023-11-22T09:02:50;30.65;;;13.05;;
22737;SDS011;11536;50.860;4.286;2023-11-22T09:05:16;31.58;;;11.90;;
22737;SDS011;11536;50.860;4.286;2023-11-22T09:07:42;30.92;;;12.07;;
22737;SDS011;11536;50.860;4.286;2023-11-22T09:10:09;29.10;;;13.32;;
22737;SDS011;11536;50.860;4.286;2023-11-22T09:12:38;31.23;;;12.60;;
22737;SDS011;11536;50.860;4.286;2023-11-22T09:15:10;27.23;;;11.90;;
22737;SDS011;11536;50.860;4.286;2023-11-22T09:17:40;28.67;;;11.93;;
22737;SDS011;11536;50.860;4.286;2023-11-22T09:20:13;25.20;;;11.93;;
22737;SDS011;11536;50.860;4.286;2023-11-22T09:22:49;27.90;;;12.57;;
22737;SDS011;11536;50.860;4.286;2023-11-22T09:25:17;26.67;;;11.48;;
22737;SDS011;11536;50.860;4.286;2023-11-22T09:27:47;27.98;;;11.75;;
22737;SDS011;11536;50.860;4.286;2023-11-22T09:30:14;28.73;;;11.10;;
22737;SDS011;11536;50.860;4.286;2023-11-22T09:33:00;23.83;;;10.98;;
22737;SDS011;11536;50.860;4.286;2023-11-22T09:35:28;27.55;;;12.15;;
22737;SDS011;11536;50.860;4.286;2023-11-22T09:37:58;27.05;;;11.93;;
22737;SDS011;11536;50.860;4.286;2023-11-22T09:40:24;28.13;;;11.88;;
22737;SDS011;11536;50.860;4.286;2023-11-22T09:42:52;24.90;;;10.57;;
22737;SDS011;11536;50.860;4.286;2023-11-22T09:45:19;26.10;;;11.23;;
22737;SDS011;11536;50.860;4.286;2023-11-22T09:47:45;26.23;;;11.77;;
22737;SDS011;11536;50.860;4.286;2023-11-22T09:50:17;24.88;;;11.73;;
22737;SDS011;11536;50.860;4.286;2023-11-22T09:53:19;25.05;;;11.13;;
22737;SDS011;11536;50.860;4.286;2023-11-22T09:55:50;25.60;;;11.20;;
22737;SDS011;11536;50.860;4.286;2023-11-22T09:58:17;23.58;;;10.88;;
22737;SDS011;11536;50.860;4.286;2023-11-22T10:00:44;25.48;;;11.80;;
22737;SDS011;11536;50.860;4.286;2023-11-22T10:03:11;25.65;;;11.02;;
22737;SDS011;11536;50.860;4.286;2023-11-22T10:05:42;23.98;;;10.77;;
22737;SDS011;11536;50.860;4.286;2023-11-22T10:08:08;24.08;;;10.77;;
22737;SDS011;11536;50.860;4.286;2023-11-22T10:10:37;27.65;;;12.27;;
22737;SDS011;11536;50.860;4.286;2023-11-22T10:13:05;24.73;;;11.02;;
22737;SDS011;11536;50.860;4.286;2023-11-22T10:15:30;27.00;;;10.95;;
22737;SDS011;11536;50.860;4.286;2023-11-22T10:17:59;24.63;;;11.45;;
22737;SDS011;11536;50.860;4.286;2023-11-22T10:20:37;25.00;;;10.40;;
22737;SDS011;11536;50.860;4.286;2023-11-22T10:23:07;25.70;;;11.48;;
22737;SDS011;11536;50.860;4.286;2023-11-22T10:25:46;24.85;;;11.45;;
22737;SDS011;11536;50.860;4.286;2023-11-22T10:28:17;25.45;;;11.02;;
22737;SDS011;11536;50.860;4.286;2023-11-22T10:30:43;26.75;;;12.27;;
22737;SDS011;11536;50.860;4.286;2023-11-22T10:33:10;28.75;;;11.93;;
22737;SDS011;11536;50.860;4.286;2023-11-22T10:35:38;25.05;;;11.10;;
22737;SDS011;11536;50.860;4.286;2023-11-22T10:38:10;22.73;;;10.55;;
22737;SDS011;11536;50.860;4.286;2023-11-22T10:40:38;27.10;;;10.77;;
22737;SDS011;11536;50.860;4.286;2023-11-22T10:43:04;24.02;;;10.52;;
22737;SDS011;11536;50.860;4.286;2023-11-22T10:45:33;20.67;;;9.43;;
22737;SDS011;11536;50.860;4.286;2023-11-22T10:48:00;25.90;;;10.38;;
22737;SDS011;11536;50.860;4.286;2023-11-22T10:50:26;23.10;;;10.57;;
22737;SDS011;11536;50.860;4.286;2023-11-22T10:52:53;25.02;;;10.45;;
22737;SDS011;11536;50.860;4.286;2023-11-22T10:55:24;23.35;;;10.15;;
22737;SDS011;11536;50.860;4.286;2023-11-22T10:57:54;22.45;;;10.68;;
22737;SDS011;11536;50.860;4.286;2023-11-22T11:00:21;23.70;;;10.30;;
22737;SDS011;11536;50.860;4.286;2023-11-22T11:02:54;25.88;;;11.02;;
22737;SDS011;11536;50.860;4.286;2023-11-22T11:05:27;22.13;;;9.27;;
22737;SDS011;11536;50.860;4.286;2023-11-22T11:07:59;23.25;;;10.77;;
22737;SDS011;11536;50.860;4.286;2023-11-22T11:10:35;22.70;;;9.80;;
22737;SDS011;11536;50.860;4.286;2023-11-22T11:13:07;22.00;;;9.90;;
22737;SDS011;11536;50.860;4.286;2023-11-22T11:15:37;19.63;;;9.32;;
22737;SDS011;11536;50.860;4.286;2023-11-22T11:18:09;20.85;;;9.88;;
22737;SDS011;11536;50.860;4.286;2023-11-22T11:20:53;18.48;;;9.05;;
22737;SDS011;11536;50.860;4.286;2023-11-22T11:23:22;22.02;;;9.55;;
22737;SDS011;11536;50.860;4.286;2023-11-22T11:25:53;20.30;;;9.13;;
22737;SDS011;11536;50.860;4.286;2023-11-22T11:28:23;18.08;;;8.75;;
22737;SDS011;11536;50.860;4.286;2023-11-22T11:30:53;17.85;;;8.35;;
22737;SDS011;11536;50.860;4.286;2023-11-22T11:33:20;18.85;;;8.85;;
22737;SDS011;11536;50.860;4.286;2023-11-22T11:35:52;18.58;;;8.77;;
22737;SDS011;11536;50.860;4.286;2023-11-22T11:38:22;18.77;;;8.75;;
22737;SDS011;11536;50.860;4.286;2023-11-22T11:40:58;20.63;;;9.10;;
22737;SDS011;11536;50.860;4.286;2023-11-22T11:43:42;21.75;;;9.45;;
22737;SDS011;11536;50.860;4.286;2023-11-22T11:46:12;21.67;;;9.82;;
22737;SDS011;11536;50.860;4.286;2023-11-22T11:48:45;18.77;;;8.45;;
22737;SDS011;11536;50.860;4.286;2023-11-22T11:51:16;20.52;;;8.63;;
22737;SDS011;11536;50.860;4.286;2023-11-22T11:53:43;21.85;;;9.23;;
22737;SDS011;11536;50.860;4.286;2023-11-22T11:56:10;20.38;;;8.43;;
22737;SDS011;11536;50.860;4.286;2023-11-22T11:58:35;20.17;;;9.65;;
22737;SDS011;11536;50.860;4.286;2023-11-22T12:01:03;21.15;;;8.98;;
22737;SDS011;11536;50.860;4.286;2023-11-22T12:03:29;21.27;;;9.65;;
22737;SDS011;11536;50.860;4.286;2023-11-22T12:05:55;20.63;;;9.85;;
22737;SDS011;11536;50.860;4.286;2023-11-22T12:08:21;15.88;;;8.20;;
22737;SDS011;11536;50.860;4.286;2023-11-22T12:10:47;18.20;;;8.77;;
22737;SDS011;11536;50.860;4.286;2023-11-22T12:13:17;20.05;;;8.35;;
22737;SDS011;11536;50.860;4.286;2023-11-22T12:15:45;23.00;;;8.93;;
22737;SDS011;11536;50.860;4.286;2023-11-22T12:18:11;20.25;;;9.07;;
22737;SDS011;11536;50.860;4.286;2023-11-22T12:20:38;18.88;;;9.40;;
22737;SDS011;11536;50.860;4.286;2023-11-22T12:23:04;21.58;;;9.27;;
22737;SDS011;11536;50.860;4.286;2023-11-22T12:25:30;21.35;;;9.45;;
22737;SDS011;11536;50.860;4.286;2023-11-22T12:27:56;19.55;;;9.02;;
22737;SDS011;11536;50.860;4.286;2023-11-22T12:30:28;21.00;;;9.77;;
22737;SDS011;11536;50.860;4.286;2023-11-22T12:32:55;18.67;;;8.60;;
22737;SDS011;11536;50.860;4.286;2023-11-22T12:35:21;18.90;;;8.52;;
22737;SDS011;11536;50.860;4.286;2023-11-22T12:37:48;16.08;;;7.90;;
22737;SDS011;11536;50.860;4.286;2023-11-22T12:40:14;21.60;;;9.48;;
22737;SDS011;11536;50.860;4.286;2023-11-22T12:42:51;18.48;;;8.45;;
22737;SDS011;11536;50.860;4.286;2023-11-22T12:45:22;17.60;;;8.98;;
22737;SDS011;11536;50.860;4.286;2023-11-22T12:47:50;16.50;;;8.18;;
22737;SDS011;11536;50.860;4.286;2023-11-22T12:50:35;18.33;;;8.05;;
22737;SDS011;11536;50.860;4.286;2023-11-22T12:55:36;17.65;;;7.95;;
22737;SDS011;11536;50.860;4.286;2023-11-22T12:58:03;17.52;;;8.15;;
22737;SDS011;11536;50.860;4.286;2023-11-22T13:00:29;20.90;;;7.80;;
22737;SDS011;11536;50.860;4.286;2023-11-22T13:02:58;21.75;;;7.78;;
22737;SDS011;11536;50.860;4.286;2023-11-22T13:05:24;15.95;;;7.38;;
22737;SDS011;11536;50.860;4.286;2023-11-22T13:07:50;18.85;;;8.90;;
22737;SDS011;11536;50.860;4.286;2023-11-22T13:10:18;17.33;;;8.30;;
22737;SDS011;11536;50.860;4.286;2023-11-22T13:12:49;20.27;;;8.43;;
22737;SDS011;11536;50.860;4.286;2023-11-22T13:15:16;18.65;;;8.35;;
22737;SDS011;11536;50.860;4.286;2023-11-22T13:17:42;19.25;;;8.93;;
22737;SDS011;11536;50.860;4.286;2023-11-22T13:20:08;18.85;;;9.02;;
22737;SDS011;11536;50.860;4.286;2023-11-22T13:22:41;20.58;;;9.05;;
22737;SDS011;11536;50.860;4.286;2023-11-22T13:25:09;21.50;;;9.32;;
22737;SDS011;11536;50.860;4.286;2023-11-22T13:27:39;20.30;;;9.38;;
22737;SDS011;11536;50.860;4.286;2023-11-22T13:30:06;20.63;;;9.48;;
22737;SDS011;11536;50.860;4.286;2023-11-22T13:32:32;21.17;;;9.20;;
22737;SDS011;11536;50.860;4.286;2023-11-22T13:34:58;19.55;;;8.60;;
22737;SDS011;11536;50.860;4.286;2023-11-22T13:37:23;19.95;;;9.10;;
22737;SDS011;11536;50.860;4.286;2023-11-22T13:39:50;18.52;;;8.80;;
22737;SDS011;11536;50.860;4.286;2023-11-22T13:42:16;18.75;;;8.80;;
22737;SDS011;11536;50.860;4.286;2023-11-22T13:44:42;20.02;;;8.88;;
22737;SDS011;11536;50.860;4.286;2023-11-22T13:47:09;19.05;;;8.90;;
22737;SDS011;11536;50.860;4.286;2023-11-22T13:49:35;20.08;;;9.23;;
22737;SDS011;11536;50.860;4.286;2023-11-22T13:52:02;18.92;;;8.48;;
22737;SDS011;11536;50.860;4.286;2023-11-22T13:54:28;16.35;;;7.85;;
22737;SDS011;11536;50.860;4.286;2023-11-22T13:56:53;18.73;;;8.10;;
22737;SDS011;11536;50.860;4.286;2023-11-22T13:59:19;20.55;;;8.70;;
22737;SDS011;11536;50.860;4.286;2023-11-22T14:01:45;17.95;;;8.43;;
22737;SDS011;11536;50.860;4.286;2023-11-22T14:04:11;21.73;;;8.23;;
22737;SDS011;11536;50.860;4.286;2023-11-22T14:06:36;17.90;;;8.32;;
22737;SDS011;11536;50.860;4.286;2023-11-22T14:09:02;18.55;;;8.10;;
22737;SDS011;11536;50.860;4.286;2023-11-22T14:11:28;19.35;;;8.52;;
22737;SDS011;11536;50.860;4.286;2023-11-22T14:13:54;21.02;;;8.80;;
22737;SDS011;11536;50.860;4.286;2023-11-22T14:16:20;20.15;;;8.65;;
22737;SDS011;11536;50.860;4.286;2023-11-22T14:18:46;19.38;;;9.23;;
22737;SDS011;11536;50.860;4.286;2023-11-22T14:21:12;18.58;;;8.48;;
22737;SDS011;11536;50.860;4.286;2023-11-22T14:23:38;17.08;;;8.60;;
22737;SDS011;11536;50.860;4.286;2023-11-22T14:26:05;22.73;;;10.15;;
22737;SDS011;11536;50.860;4.286;2023-11-22T14:28:31;18.08;;;8.38;;
22737;SDS011;11536;50.860;4.286;2023-11-22T14:30:58;17.70;;;8.57;;